Great Bend, KS

2:35 AM CST on December 09, 2016 (GMT -0600)
Edgepark Addition | | Change Station

Elev 1880 ft 38.38 °N, 98.77 °W | Updated 2 seconds ago

Mostly Cloudy
Mostly Cloudy
10.4 °F
Feels Like 10 °F
N
0.0
Wind Variable Wind from ENE
Gusts 0.0 mph

Today
High -- | Low -- °F
--% Chance of Precip.
Yesterday
High -- | Low -- °F
Precip. -- in
Pressure 30.69 in
Visibility 10.0 miles
Clouds Clear
Windchill 10 °F
Dew Point 5 °F
Humidity 79%
Rainfall 0.00 in
Snow Depth Not available.
7:40 AM 5:14 PM
Waxing Gibbous, 72% visible
METAR KGBD 090756Z AUTO 00000KT 10SM CLR M13/M16 A3059 RMK AO2 SLP390 T11331156 FZRANO
Pressure 30.69 in
Visibility 10.0 miles
Clouds Clear
Windchill 10 °F
Dew Point 5 °F
Humidity 79%
Rainfall 0.00 in
Snow Depth Not available.
7:40 AM 5:14 PM
Waxing Gibbous, 72% visible
METAR KGBD 090756Z AUTO 00000KT 10SM CLR M13/M16 A3059 RMK AO2 SLP390 T11331156 FZRANO

10-Day Weather Forecast

Almanac

Astronomy

Dec. 09, 2016 Rise Set
Actual Time
Civil Twilight
Nautical Twilight
Astronomical Twilight
Moon
Length of Visible Light
Length of Day
Tomorrow will be .
, % of the Moon is Illuminated

Today's Extremes

State Highs State Lows

Community

WunderPhotos

Upload Photos

1,956,371 photos uploaded!

WunderBlog® & News

Nearby

Air Quality

  Air Quality AQ Index Pollutant
Not available.

Snow Depth

Station Depth Elevation

Earthquake Activity

City Distance Mag. Time & Date
Minimum magnitude displayed is 2.5.

Coastal Water Temperatures

Place Temperature

Stations

Nearby Weather Stations

Station Location Temp. Windchill Dew Point Humidity Wind Precip. Elev Updated Type
                   

Watches & Warnings

There are currently no watches in effect.